Park Fletcher, Indiana
Current Conditions -  °F | °C
As of 6:54 PM on Sunday 23 Nov 2014 (Local Time) from KIND Reporting Station
Moderate Rain Moderate Rain  
Wind Chill: 51°   Ceiling: 700
Heat Index: 51°   Visibility: 4mi
Dew Point: 50°   Wind: 13mph
Humidity: 96%   Direction: 140°SE
Pressure: 29.38"   Gusts: NA
Location:  39.7251°N, 86.264°W
Report Text: KIND 232354Z 14011KT 4SM RA BR BKN007 OVC028 11/10 A2938 RMK AO2 SLP948 P0014 60078 T01060100 10111 20100 56048
Loading
Personal Weather Stations






























Interactive Weather Map New forecast layout! Learn more

10-Day Weather Forecast

Advertisements
Track Severe Weather on mobile